createdAt,value
2017-12-05T05:23:59.023Z,62.42
2017-12-05T05:26:26.698Z,62.15
2017-12-05T05:28:54.278Z,61.46
2017-12-05T05:31:21.919Z,60.90
2017-12-05T05:33:49.737Z,61.55
2017-12-05T05:36:17.596Z,61.84
2017-12-05T05:38:45.998Z,61.75
2017-12-05T05:41:14.503Z,61.12
2017-12-05T05:43:42.111Z,81.51
2017-12-05T05:46:09.713Z,82.91
2017-12-05T05:48:37.785Z,72.04
2017-12-05T05:51:05.403Z,64.44
2017-12-05T05:53:33.071Z,62.75
2017-12-05T05:56:00.647Z,61.81
2017-12-05T05:58:28.296Z,60.22
2017-12-05T06:00:56.145Z,60.51
2017-12-05T06:03:24.426Z,61.09
2017-12-05T06:05:52.043Z,60.87
2017-12-05T06:08:20.536Z,60.73
2017-12-05T06:10:48.079Z,61.05
2017-12-05T06:13:15.716Z,61.02
2017-12-05T06:15:43.353Z,61.32
2017-12-05T06:18:10.908Z,60.59
2017-12-05T06:20:39.178Z,59.88
2017-12-05T06:23:06.806Z,60.86
2017-12-05T06:25:34.429Z,61.34
2017-12-05T06:28:02.016Z,60.26
2017-12-05T06:30:29.799Z,60.29
2017-12-05T06:32:57.387Z,62.97
2017-12-05T06:35:24.957Z,61.43
2017-12-05T06:37:52.544Z,60.84
2017-12-05T06:40:20.349Z,59.54
2017-12-05T06:42:47.974Z,59.75
2017-12-05T06:45:15.614Z,58.91
2017-12-05T06:47:43.264Z,60.15
2017-12-05T06:50:10.908Z,59.97
2017-12-05T06:52:38.899Z,59.01
2017-12-05T06:55:06.573Z,59.69
2017-12-05T06:57:34.348Z,59.39
2017-12-05T07:00:02.014Z,59.04
2017-12-05T07:02:29.791Z,59.55
2017-12-05T07:04:57.611Z,59.46
2017-12-05T07:07:25.311Z,59.45
2017-12-05T07:09:52.970Z,59.48
2017-12-05T07:12:20.631Z,60.17
2017-12-05T07:14:48.331Z,60.88
2017-12-05T07:17:15.937Z,60.08
2017-12-05T07:19:43.556Z,59.51
2017-12-05T07:22:11.162Z,59.03
2017-12-05T07:24:38.971Z,59.32
2017-12-05T07:27:06.590Z,59.05
2017-12-05T07:29:34.138Z,58.74
2017-12-05T07:32:01.974Z,59.94
2017-12-05T07:34:29.598Z,58.23
2017-12-05T07:36:57.180Z,58.73
2017-12-05T07:39:25.592Z,58.13
2017-12-05T07:41:53.231Z,58.23
2017-12-05T07:44:20.801Z,57.56
2017-12-05T07:46:48.601Z,57.45
2017-12-05T07:49:16.946Z,56.40
2017-12-05T07:51:44.566Z,55.66
2017-12-05T07:54:12.197Z,56.94
2017-12-05T07:56:41.646Z,57.57
2017-12-05T07:59:09.240Z,56.82
2017-12-05T08:01:36.861Z,57.15
2017-12-05T08:04:05.284Z,57.65
2017-12-05T08:06:33.111Z,57.78
2017-12-05T08:09:00.769Z,57.49
2017-12-05T08:11:28.342Z,57.21
2017-12-05T08:13:55.978Z,57.32
2017-12-05T08:16:23.545Z,57.62
2017-12-05T08:18:52.117Z,59.36
2017-12-05T08:21:19.733Z,58.09
2017-12-05T08:23:47.384Z,58.48
2017-12-05T08:26:14.945Z,57.81
2017-12-05T08:28:43.214Z,57.32
2017-12-05T08:31:12.285Z,57.67
2017-12-05T08:33:39.951Z,57.32
2017-12-05T08:36:07.483Z,58.22
2017-12-05T08:38:35.151Z,58.00
2017-12-05T08:41:02.787Z,57.52
2017-12-05T08:43:30.503Z,57.55
2017-12-05T08:45:58.134Z,56.84
2017-12-05T08:48:25.720Z,56.85
2017-12-05T08:50:53.849Z,57.66
2017-12-05T08:53:21.505Z,57.99
2017-12-05T08:55:49.078Z,58.83
2017-12-05T08:58:16.683Z,61.67
2017-12-05T09:00:44.288Z,61.38
2017-12-05T09:03:11.827Z,62.18
2017-12-05T09:05:39.437Z,62.96
2017-12-05T09:08:07.037Z,63.88
2017-12-05T09:10:35.810Z,63.03
2017-12-05T09:13:03.893Z,63.42
2017-12-05T09:15:31.763Z,63.40
2017-12-05T09:18:00.745Z,63.15
2017-12-05T09:20:28.319Z,64.05
2017-12-05T09:22:55.938Z,64.05
2017-12-05T09:25:23.643Z,63.80
2017-12-05T09:27:52.133Z,63.44
2017-12-05T09:30:20.754Z,64.48
2017-12-05T09:32:48.625Z,63.57
2017-12-05T09:35:16.438Z,63.04
2017-12-05T09:37:44.049Z,61.51
2017-12-05T09:40:11.632Z,61.37
2017-12-05T09:42:40.575Z,60.33
2017-12-05T09:45:08.185Z,58.47
2017-12-05T09:47:35.756Z,58.04
2017-12-05T09:50:03.406Z,58.72
2017-12-05T09:52:32.338Z,59.65
2017-12-05T09:55:00.370Z,59.81
2017-12-05T09:57:27.945Z,60.28
2017-12-05T09:59:55.608Z,60.39
2017-12-05T10:02:23.818Z,60.66
2017-12-05T10:04:51.950Z,61.49
2017-12-05T10:07:19.747Z,62.08
2017-12-05T10:09:47.391Z,61.50
2017-12-05T10:12:15.024Z,61.40
2017-12-05T10:14:42.665Z,61.39
2017-12-05T10:17:10.292Z,61.35
2017-12-05T10:19:37.993Z,60.71
2017-12-05T10:22:05.898Z,60.96
2017-12-05T10:24:33.601Z,61.10
2017-12-05T10:27:01.228Z,61.19
2017-12-05T10:29:28.865Z,61.30
2017-12-05T10:31:56.757Z,61.69
2017-12-05T10:34:24.941Z,61.46
2017-12-05T10:36:52.496Z,61.48
2017-12-05T10:39:20.298Z,62.04
2017-12-05T10:41:48.942Z,62.36
2017-12-05T10:44:16.771Z,62.14
2017-12-05T10:46:44.471Z,62.86
2017-12-05T10:49:12.256Z,64.35
2017-12-05T10:51:39.843Z,63.88
2017-12-05T10:54:07.481Z,64.14
2017-12-05T10:56:35.281Z,64.41
2017-12-05T10:59:04.078Z,63.52
2017-12-05T11:01:32.042Z,62.88
2017-12-05T11:03:59.681Z,62.17
2017-12-05T11:06:27.660Z,61.89
2017-12-05T11:08:55.278Z,61.02
2017-12-05T11:11:23.050Z,60.55
2017-12-05T11:13:51.669Z,60.39
2017-12-05T11:16:19.273Z,59.56
2017-12-05T11:18:47.605Z,58.76
2017-12-05T11:21:15.211Z,57.81
2017-12-05T11:23:43.135Z,57.38
2017-12-05T11:26:10.718Z,57.72
2017-12-05T11:28:38.705Z,56.91
2017-12-05T11:31:10.123Z,56.31
2017-12-05T11:33:38.728Z,55.40
2017-12-05T11:36:06.385Z,55.73
2017-12-05T11:38:33.972Z,55.55
2017-12-05T11:41:01.677Z,56.07
2017-12-05T11:43:29.315Z,56.46
2017-12-05T11:45:58.175Z,55.69
2017-12-05T11:48:25.916Z,55.11
2017-12-05T11:50:53.637Z,54.68
2017-12-05T11:53:21.383Z,55.05
2017-12-05T11:55:49.078Z,56.24
2017-12-05T11:58:16.775Z,56.84
2017-12-05T12:00:46.102Z,57.64
2017-12-05T12:03:14.026Z,56.90
2017-12-05T12:05:42.182Z,57.28
2017-12-05T12:08:09.917Z,57.37
2017-12-05T12:10:37.597Z,56.75
2017-12-05T12:13:05.279Z,56.23
2017-12-05T12:20:08.263Z,56.57
2017-12-05T12:22:35.951Z,57.35
2017-12-05T12:25:05.353Z,56.78
2017-12-05T12:27:32.991Z,57.43
2017-12-05T12:30:00.666Z,57.36
2017-12-05T12:32:28.837Z,57.70
2017-12-05T12:34:58.146Z,57.94
2017-12-05T12:37:25.784Z,58.16
2017-12-05T12:39:53.873Z,57.74
2017-12-05T12:42:21.543Z,58.00
2017-12-05T12:44:49.534Z,57.65
2017-12-05T12:47:17.234Z,57.61
2017-12-05T12:49:45.058Z,58.49
2017-12-05T12:52:12.872Z,58.27
2017-12-05T12:54:40.576Z,58.70
2017-12-05T12:57:08.205Z,58.98
2017-12-05T12:59:35.873Z,58.99
2017-12-05T13:02:03.681Z,59.21
2017-12-05T13:04:31.518Z,59.66
2017-12-05T13:06:59.252Z,59.53
2017-12-05T13:09:26.902Z,59.68
2017-12-05T13:11:55.469Z,60.11
2017-12-05T13:14:23.258Z,60.19
2017-12-05T13:16:51.251Z,60.20
2017-12-05T13:19:18.950Z,59.78
2017-12-05T13:21:46.825Z,59.86
2017-12-05T13:24:14.529Z,59.79
2017-12-05T13:26:42.183Z,59.89
2017-12-05T13:29:10.082Z,59.56
2017-12-05T13:31:37.812Z,59.75
2017-12-05T13:34:05.460Z,59.65
2017-12-05T13:36:33.469Z,59.59
2017-12-05T13:39:01.131Z,59.61
2017-12-05T13:41:28.868Z,59.96
2017-12-05T13:43:56.482Z,59.96
2017-12-05T13:46:24.969Z,59.88
2017-12-05T13:48:53.513Z,59.70
2017-12-05T13:51:21.349Z,59.53
2017-12-05T13:53:50.208Z,59.54
2017-12-05T13:56:17.830Z,59.49
2017-12-05T13:58:45.512Z,59.19
2017-12-05T14:01:13.229Z,59.24
2017-12-05T14:03:41.084Z,59.78
2017-12-05T14:06:08.739Z,59.89
2017-12-05T14:08:36.414Z,59.73
2017-12-05T14:11:04.642Z,60.10
2017-12-05T14:13:32.333Z,59.95
2017-12-05T14:16:00.211Z,61.00
2017-12-05T14:18:27.915Z,60.38
2017-12-05T14:20:55.712Z,60.83
2017-12-05T14:23:23.716Z,60.08
2017-12-05T14:29:29.707Z,60.22
2017-12-05T14:31:57.543Z,60.48
2017-12-05T14:34:25.241Z,60.59
2017-12-05T14:36:52.874Z,60.33
2017-12-05T14:39:22.228Z,60.08
2017-12-05T14:41:55.940Z,60.32
2017-12-05T14:44:25.556Z,60.74
2017-12-05T14:46:54.534Z,60.56
2017-12-05T14:49:22.490Z,60.95
2017-12-05T14:51:50.947Z,61.43
2017-12-05T14:54:52.910Z,61.44
2017-12-05T14:57:20.675Z,61.21
2017-12-05T14:59:48.300Z,61.55
2017-12-05T15:02:15.998Z,61.41
2017-12-05T15:04:44.967Z,61.46
2017-12-05T15:07:12.615Z,61.32
2017-12-05T15:09:44.956Z,61.44
2017-12-05T15:12:12.651Z,61.34
2017-12-05T15:14:40.341Z,61.26
2017-12-05T15:17:09.051Z,61.54
2017-12-05T15:19:36.722Z,61.42
2017-12-05T15:22:04.365Z,61.88
2017-12-05T15:24:32.200Z,61.53
2017-12-05T15:27:00.625Z,61.20
2017-12-05T15:29:30.098Z,61.55
2017-12-05T15:32:08.266Z,61.40
2017-12-05T15:34:36.982Z,61.34
2017-12-05T15:37:06.304Z,61.58
2017-12-05T15:39:34.022Z,61.47
2017-12-05T15:42:01.958Z,61.10
2017-12-05T15:44:30.622Z,61.28
2017-12-05T15:46:58.356Z,61.59
2017-12-05T15:49:26.087Z,61.79
2017-12-05T15:51:53.723Z,62.46
2017-12-05T15:54:21.447Z,62.30
2017-12-05T15:56:49.657Z,61.96
2017-12-05T15:59:17.300Z,62.03
2017-12-05T16:01:45.685Z,61.97
2017-12-05T16:04:14.932Z,61.98
2017-12-05T16:06:42.853Z,62.10
2017-12-05T16:09:13.147Z,62.10
2017-12-05T16:11:49.575Z,62.23
2017-12-05T16:14:17.220Z,62.30
2017-12-05T16:16:46.162Z,62.16
2017-12-05T16:21:47.609Z,63.06
2017-12-05T16:24:16.394Z,63.32
2017-12-05T16:26:44.055Z,63.19
2017-12-05T16:29:16.532Z,63.78
2017-12-05T16:31:55.844Z,63.69
2017-12-05T16:34:23.525Z,63.67
2017-12-05T16:37:19.032Z,63.76
2017-12-05T16:39:50.682Z,65.88
2017-12-05T16:42:22.459Z,63.56
2017-12-05T16:44:51.537Z,63.89
2017-12-05T16:47:21.948Z,63.67
2017-12-05T16:49:50.592Z,63.91
2017-12-05T16:52:21.463Z,63.50
2017-12-05T16:54:49.254Z,63.02
2017-12-05T16:57:20.217Z,62.83
2017-12-05T16:59:48.434Z,63.15
2017-12-05T17:02:16.468Z,63.08
2017-12-05T17:04:44.138Z,62.82
2017-12-05T17:07:11.884Z,63.00
2017-12-05T17:09:53.195Z,62.57
2017-12-05T17:16:04.307Z,62.74
2017-12-05T17:18:32.189Z,62.93
2017-12-05T17:21:03.284Z,62.78
2017-12-05T17:23:34.181Z,63.15
2017-12-05T17:26:02.783Z,63.15
2017-12-05T17:28:31.370Z,63.12
2017-12-05T17:31:00.031Z,63.01
2017-12-05T17:33:37.171Z,63.32
2017-12-05T17:46:03.628Z,62.71
2017-12-05T17:48:32.081Z,62.91
2017-12-05T17:51:00.369Z,62.71
2017-12-05T17:53:28.298Z,62.39
2017-12-05T17:55:57.908Z,62.54
2017-12-05T17:58:25.802Z,62.42
2017-12-05T18:00:53.609Z,62.58
2017-12-05T18:03:21.282Z,62.56
2017-12-05T18:05:50.419Z,62.55
2017-12-05T18:08:19.942Z,62.75
2017-12-05T18:10:47.927Z,62.94
2017-12-05T18:13:15.687Z,63.06
2017-12-05T18:15:43.541Z,63.06
2017-12-05T18:18:11.603Z,63.07
2017-12-05T18:20:39.378Z,63.54
2017-12-05T18:23:07.833Z,63.74
2017-12-05T18:25:36.140Z,63.70
2017-12-05T18:28:03.843Z,63.36
2017-12-05T18:30:31.607Z,64.01
2017-12-05T18:33:03.687Z,63.70
2017-12-05T18:35:32.295Z,63.23
2017-12-05T18:38:03.863Z,63.19
2017-12-05T18:40:31.733Z,63.60
2017-12-05T18:43:00.497Z,63.59
2017-12-05T18:45:28.251Z,63.84
2017-12-05T18:47:57.275Z,63.76
2017-12-05T18:50:25.711Z,63.46
2017-12-05T18:52:55.028Z,63.45
2017-12-05T18:55:44.304Z,62.92
2017-12-05T18:58:15.940Z,63.20
2017-12-05T19:00:44.972Z,62.77
2017-12-05T19:03:16.020Z,62.95
2017-12-05T19:05:43.978Z,63.10
2017-12-05T19:08:12.476Z,62.70
2017-12-05T19:10:40.230Z,62.94
2017-12-05T19:13:08.812Z,62.57
2017-12-05T19:15:38.261Z,62.64
2017-12-05T19:18:07.159Z,62.52
2017-12-05T19:20:34.913Z,62.69
2017-12-05T19:23:03.250Z,62.55
2017-12-05T19:25:34.527Z,62.51
2017-12-05T19:28:02.912Z,62.57
2017-12-05T19:30:30.873Z,62.87
2017-12-05T19:33:23.528Z,62.82
2017-12-05T19:39:02.885Z,62.55
2017-12-05T19:41:37.084Z,62.51
2017-12-05T19:58:13.759Z,61.86
2017-12-05T20:21:32.582Z,61.25
2017-12-05T20:30:50.875Z,60.79
2017-12-05T20:36:52.423Z,60.53
2017-12-05T20:39:22.673Z,60.86
2017-12-05T20:41:53.377Z,60.92
2017-12-05T20:44:22.209Z,61.34
2017-12-05T20:52:05.580Z,61.04
2017-12-05T20:57:16.442Z,61.02
2017-12-05T20:59:46.328Z,60.79
2017-12-05T21:02:18.598Z,60.59
2017-12-05T21:04:48.075Z,60.95
2017-12-05T21:07:20.496Z,61.01
2017-12-05T21:09:52.869Z,61.52
2017-12-05T21:12:21.435Z,61.85
2017-12-05T21:14:53.711Z,61.82
2017-12-05T21:17:24.864Z,62.26
2017-12-05T21:19:55.495Z,62.06
2017-12-05T21:26:22.079Z,61.97
2017-12-05T21:28:52.039Z,62.23
2017-12-05T21:31:29.943Z,61.71
2017-12-05T21:37:37.529Z,61.42
2017-12-05T21:49:36.508Z,61.29
2017-12-05T21:52:14.320Z,60.93
2017-12-05T21:58:18.739Z,61.69
2017-12-05T22:03:46.753Z,61.29
2017-12-05T22:38:14.233Z,60.59
2017-12-05T22:40:42.001Z,60.16
2017-12-05T22:43:10.144Z,60.42
2017-12-05T22:45:37.913Z,60.68
2017-12-05T22:48:05.636Z,60.73
2017-12-05T22:50:33.435Z,60.93
2017-12-05T22:53:01.299Z,60.55
2017-12-05T22:55:29.301Z,60.80
2017-12-05T23:00:29.528Z,60.23
2017-12-05T23:02:59.127Z,59.52
2017-12-05T23:05:27.172Z,59.62
2017-12-05T23:07:55.087Z,58.91
2017-12-05T23:10:23.276Z,58.77
2017-12-05T23:12:51.408Z,58.97
2017-12-05T23:15:19.896Z,58.27
2017-12-05T23:17:47.623Z,57.94
2017-12-05T23:20:15.361Z,58.02
2017-12-05T23:22:42.986Z,58.17
2017-12-05T23:25:10.661Z,57.16
2017-12-05T23:27:38.536Z,57.44
2017-12-05T23:30:07.200Z,57.17
2017-12-05T23:32:37.780Z,57.01
2017-12-05T23:35:06.555Z,57.01
2017-12-05T23:37:34.599Z,56.88
2017-12-05T23:40:02.304Z,56.76
2017-12-05T23:42:30.100Z,56.12
2017-12-05T23:44:59.675Z,56.35
2017-12-05T23:47:28.769Z,56.99
2017-12-05T23:49:56.639Z,56.56
2017-12-05T23:52:24.603Z,56.20
2017-12-05T23:54:52.419Z,55.20
2017-12-05T23:57:20.276Z,56.02
2017-12-05T23:59:48.561Z,56.33
